Time;durP1;ratioP1;P1;durP2;ratioP2;P2;SDS_P1;SDS_P2;PMS_P1;PMS_P2;Temp;Humidity;BMP_temperature;BMP_pressure;BME280_temperature;BME280_humidity;BME280_pressure;Samples;Min_cycle;Max_cycle;Signal;HPM_P1;HPM_P2
2022/08/19 00:01:32;;;;;;;5.50;2.30;;;19.70;99.90;;;;;;4969006;28;20030;-56
2022/08/19 00:04:00;;;;;;;9.15;2.90;;;19.70;99.90;;;;;;4960577;28;20028;-57
2022/08/19 00:06:28;;;;;;;8.60;2.33;;;19.80;99.90;;;;;;4967300;28;20402;-57
2022/08/19 00:08:55;;;;;;;5.38;1.75;;;19.70;99.90;;;;;;4962606;28;20495;-57
2022/08/19 00:11:21;;;;;;;8.70;2.70;;;19.70;99.90;;;;;;4970110;28;20117;-57
2022/08/19 00:13:48;;;;;;;8.88;3.08;;;19.70;99.90;;;;;;4967844;28;20569;-57
2022/08/19 00:16:14;;;;;;;11.55;2.47;;;19.70;99.90;;;;;;4970688;28;20023;-57
2022/08/19 00:18:40;;;;;;;6.93;2.65;;;19.70;99.90;;;;;;4967340;28;20042;-57
2022/08/19 00:21:08;;;;;;;6.88;2.28;;;19.70;99.90;;;;;;4969794;28;20027;-58
2022/08/19 00:23:35;;;;;;;5.72;1.80;;;19.70;99.90;;;;;;4967883;28;20442;-58
2022/08/19 00:26:03;;;;;;;6.57;2.03;;;19.70;99.90;;;;;;4970248;28;20031;-58
2022/08/19 00:28:29;;;;;;;3.65;1.38;;;19.70;99.90;;;;;;4968658;28;20026;-57
2022/08/19 00:30:56;;;;;;;3.08;1.50;;;19.70;99.90;;;;;;4974551;28;20019;-58
2022/08/19 00:33:21;;;;;;;2.92;1.90;;;19.70;99.90;;;;;;4974008;28;20138;-56
2022/08/19 00:35:47;;;;;;;7.10;1.80;;;19.70;99.90;;;;;;4971794;28;20065;-57
2022/08/19 00:38:13;;;;;;;3.42;1.33;;;19.70;99.90;;;;;;4973166;28;20061;-57
2022/08/19 00:40:39;;;;;;;3.05;1.48;;;19.70;99.90;;;;;;4970263;28;20182;-57
2022/08/19 00:43:12;;;;;;;5.18;1.55;;;19.70;99.90;;;;;;4974087;28;20165;-57
2022/08/19 00:45:41;;;;;;;5.47;1.85;;;19.70;99.90;;;;;;4972489;28;20030;-57
2022/08/19 00:48:07;;;;;;;4.32;1.80;;;19.70;99.90;;;;;;4974061;28;20034;-57
2022/08/19 00:50:33;;;;;;;3.15;1.20;;;19.70;99.90;;;;;;4971014;28;20026;-57
2022/08/19 00:53:00;;;;;;;7.28;1.45;;;19.70;99.90;;;;;;4972858;28;20054;-57
2022/08/19 00:55:28;;;;;;;8.32;2.22;;;19.60;99.90;;;;;;4971341;28;20034;-57
2022/08/19 00:58:05;;;;;;;3.08;1.63;;;19.60;99.90;;;;;;4974100;28;20023;-57
2022/08/19 01:00:33;;;;;;;3.35;1.83;;;19.60;99.90;;;;;;4971080;28;20027;-57
2022/08/19 01:02:59;;;;;;;6.00;1.75;;;19.60;99.90;;;;;;4964879;28;20077;-57
2022/08/19 01:05:28;;;;;;;5.35;1.65;;;19.60;99.90;;;;;;4971443;28;20493;-58
2022/08/19 01:07:57;;;;;;;7.45;2.13;;;19.50;99.90;;;;;;4973433;28;20511;-58
2022/08/19 01:10:26;;;;;;;6.60;1.75;;;19.50;99.90;;;;;;4972587;28;20400;-56
2022/08/19 01:12:53;;;;;;;6.55;1.58;;;19.50;99.90;;;;;;4970712;28;20034;-56
2022/08/19 01:15:24;;;;;;;5.30;1.95;;;19.60;99.90;;;;;;4973641;28;20034;-57
2022/08/19 01:17:51;;;;;;;8.10;1.77;;;19.60;99.90;;;;;;4973498;28;20027;-57
2022/08/19 01:20:21;;;;;;;2.20;1.40;;;19.60;99.90;;;;;;4973212;28;20588;-57
2022/08/19 01:22:49;;;;;;;6.03;2.40;;;19.60;99.90;;;;;;4968026;28;20031;-57
2022/08/19 01:25:19;;;;;;;5.25;1.80;;;19.60;99.90;;;;;;4973457;28;20118;-57
2022/08/19 01:27:48;;;;;;;3.55;1.92;;;19.60;99.90;;;;;;4970999;28;20031;-57
2022/08/19 01:30:25;;;;;;;5.45;1.67;;;19.60;99.90;;;;;;4972315;28;20031;-57
2022/08/19 01:32:52;;;;;;;6.10;1.60;;;19.60;99.90;;;;;;4970183;28;20126;-57
2022/08/19 01:35:19;;;;;;;7.90;1.52;;;19.70;99.90;;;;;;4973020;28;20035;-57
2022/08/19 01:37:52;;;;;;;6.80;1.60;;;19.70;99.90;;;;;;4969597;28;20023;-57
2022/08/19 01:40:20;;;;;;;5.20;1.30;;;19.70;99.90;;;;;;4971979;28;20394;-57
2022/08/19 01:42:47;;;;;;;4.68;1.50;;;19.70;99.90;;;;;;4967884;28;20497;-57
2022/08/19 01:45:13;;;;;;;4.82;1.20;;;19.70;99.90;;;;;;4973169;28;20027;-57
2022/08/19 01:47:39;;;;;;;8.50;1.50;;;19.70;99.90;;;;;;4962111;28;20122;-57
2022/08/19 01:50:07;;;;;;;3.53;1.75;;;19.70;99.90;;;;;;4972827;28;20038;-58
2022/08/19 01:52:35;;;;;;;5.50;1.70;;;19.70;99.90;;;;;;4970726;28;20035;-58
2022/08/19 01:55:01;;;;;;;1.73;1.15;;;19.70;99.90;;;;;;4972099;28;20034;-58
2022/08/19 01:57:27;;;;;;;7.32;1.65;;;19.60;99.90;;;;;;4969532;28;20106;-56
2022/08/19 01:59:53;;;;;;;3.38;1.33;;;19.60;99.90;;;;;;4971692;28;20453;-56
2022/08/19 02:02:19;;;;;;;5.53;1.08;;;19.60;99.90;;;;;;4972588;28;20034;-56
2022/08/19 02:04:45;;;;;;;4.07;1.10;;;19.60;99.90;;;;;;4969812;28;20035;-56
2022/08/19 02:07:11;;;;;;;5.95;1.27;;;19.60;99.90;;;;;;4971694;28;20054;-57
2022/08/19 02:09:37;;;;;;;8.48;1.30;;;19.60;99.90;;;;;;4966966;28;20406;-57
2022/08/19 02:12:04;;;;;;;2.95;1.20;;;19.50;99.90;;;;;;4972354;28;20034;-57
2022/08/19 02:14:30;;;;;;;5.80;1.58;;;19.60;99.90;;;;;;4968935;28;20043;-57
2022/08/19 02:16:56;;;;;;;4.50;1.40;;;19.60;99.90;;;;;;4972343;28;20382;-58
2022/08/19 02:19:22;;;;;;;2.45;0.90;;;19.50;99.90;;;;;;4971974;28;20050;-57
2022/08/19 02:21:47;;;;;;;4.32;1.55;;;19.50;99.90;;;;;;4970929;28;20038;-57
2022/08/19 02:24:13;;;;;;;5.13;1.65;;;19.50;99.90;;;;;;4970613;28;20041;-56
2022/08/19 02:26:39;;;;;;;6.80;1.17;;;19.50;99.90;;;;;;4968741;28;20117;-57
2022/08/19 02:29:05;;;;;;;5.53;0.88;;;19.50;99.90;;;;;;4971805;28;20023;-57
2022/08/19 02:31:31;;;;;;;4.50;1.02;;;19.50;99.90;;;;;;4970282;28;20100;-56
2022/08/19 02:33:57;;;;;;;4.75;1.33;;;19.50;99.90;;;;;;4970989;28;20062;-57
2022/08/19 02:36:24;;;;;;;3.60;0.85;;;19.50;99.90;;;;;;4972015;28;20027;-57
2022/08/19 02:38:49;;;;;;;3.03;1.13;;;19.50;99.90;;;;;;4971778;28;20038;-57
2022/08/19 02:41:22;;;;;;;4.68;1.20;;;19.50;99.90;;;;;;4970700;28;20027;-57
2022/08/19 02:43:48;;;;;;;4.15;1.20;;;19.50;99.90;;;;;;4968135;28;20038;-58
2022/08/19 02:46:24;;;;;;;5.65;1.10;;;19.50;99.90;;;;;;4970839;28;20023;-57
2022/08/19 02:48:56;;;;;;;6.78;1.00;;;19.50;99.90;;;;;;4962920;28;20035;-57
2022/08/19 02:51:31;;;;;;;4.93;1.23;;;19.50;99.90;;;;;;4965735;28;20471;-57
2022/08/19 02:53:58;;;;;;;6.32;1.60;;;19.50;99.90;;;;;;4971446;28;20046;-57
2022/08/19 02:56:26;;;;;;;3.80;1.55;;;19.50;99.90;;;;;;4968916;28;20081;-57
2022/08/19 02:58:51;;;;;;;3.08;1.20;;;19.50;99.90;;;;;;4963092;28;20053;-57
2022/08/19 03:01:26;;;;;;;4.93;1.27;;;19.50;99.90;;;;;;4970998;28;20383;-57
2022/08/19 03:03:53;;;;;;;4.43;1.20;;;19.50;99.90;;;;;;4970620;28;20041;-57
2022/08/19 03:06:19;;;;;;;5.68;1.35;;;19.50;99.90;;;;;;4971500;28;20030;-57
2022/08/19 03:08:47;;;;;;;5.55;1.10;;;19.50;99.90;;;;;;4968042;28;20031;-57
2022/08/19 03:11:17;;;;;;;6.20;1.48;;;19.50;99.90;;;;;;4970026;28;20105;-58
2022/08/19 03:13:43;;;;;;;6.25;1.15;;;19.50;99.90;;;;;;4968945;28;20043;-57
2022/08/19 03:16:46;;;;;;;6.72;1.55;;;19.50;99.90;;;;;;4971565;28;20035;-57
2022/08/19 03:19:31;;;;;;;4.75;1.30;;;19.50;99.90;;;;;;4969414;28;20026;-57
2022/08/19 03:22:14;;;;;;;13.80;1.88;;;19.40;99.90;;;;;;4971400;28;20035;-58
2022/08/19 03:24:40;;;;;;;5.63;1.40;;;19.40;99.90;;;;;;4968815;28;20069;-58
2022/08/19 03:27:06;;;;;;;6.78;3.67;;;19.30;99.90;;;;;;4970867;28;20058;-60
2022/08/19 03:29:32;;;;;;;4.95;1.75;;;19.20;99.90;;;;;;4966395;28;20034;-58
2022/08/19 03:32:00;;;;;;;4.03;1.40;;;19.10;99.90;;;;;;4970542;28;20077;-57
2022/08/19 03:34:29;;;;;;;8.45;1.73;;;19.10;99.90;;;;;;4968719;28;20046;-57
2022/08/19 03:36:57;;;;;;;6.22;1.65;;;19.00;99.90;;;;;;4970931;28;20030;-59
2022/08/19 03:39:24;;;;;;;9.07;1.92;;;19.00;99.90;;;;;;4969813;28;20035;-57
2022/08/19 03:41:52;;;;;;;5.20;1.60;;;19.00;99.90;;;;;;4970942;28;20031;-57
2022/08/19 03:44:21;;;;;;;7.15;1.85;;;19.00;99.90;;;;;;4968515;28;20394;-57
2022/08/19 03:46:56;;;;;;;5.78;1.70;;;19.00;99.90;;;;;;4969518;28;20036;-57
2022/08/19 03:49:23;;;;;;;7.47;2.13;;;18.90;99.90;;;;;;4968891;28;20022;-57
2022/08/19 03:51:50;;;;;;;7.57;1.70;;;18.90;99.90;;;;;;4970503;28;20022;-57
2022/08/19 03:54:19;;;;;;;6.50;1.90;;;18.90;99.90;;;;;;4970564;28;20081;-56
2022/08/19 03:56:46;;;;;;;12.02;2.30;;;18.80;99.90;;;;;;4967722;28;20031;-56
2022/08/19 03:59:15;;;;;;;8.30;2.25;;;18.90;99.90;;;;;;4969740;28;20410;-56
2022/08/19 04:01:42;;;;;;;8.35;2.13;;;18.90;99.90;;;;;;4968860;28;20031;-58
2022/08/19 04:04:07;;;;;;;8.93;2.78;;;18.90;99.90;;;;;;4973648;28;20031;-56
2022/08/19 04:06:36;;;;;;;6.00;1.45;;;18.90;99.90;;;;;;4972726;28;20041;-57
2022/08/19 04:09:04;;;;;;;8.55;2.38;;;18.90;99.90;;;;;;4973063;28;20042;-57
2022/08/19 04:11:41;;;;;;;3.42;1.77;;;18.90;99.90;;;;;;4973127;28;20030;-58
2022/08/19 04:14:07;;;;;;;7.78;1.70;;;18.90;99.90;;;;;;4986971;28;20051;-57
2022/08/19 04:16:33;;;;;;;7.97;1.75;;;18.90;99.90;;;;;;4978220;28;20061;-56
2022/08/19 04:19:01;;;;;;;7.53;1.83;;;18.90;99.90;;;;;;4972345;28;20473;-56
2022/08/19 04:21:27;;;;;;;7.80;2.03;;;18.90;99.90;;;;;;4975918;28;20028;-57
2022/08/19 04:23:54;;;;;;;10.35;2.00;;;18.90;99.90;;;;;;4987214;28;20118;-57
2022/08/19 04:26:26;;;;;;;12.35;2.35;;;18.90;99.90;;;;;;4979994;28;20117;-59
2022/08/19 04:28:52;;;;;;;;;;;19.00;99.90;;;;;;4980460;28;20117;-57
2022/08/19 04:31:27;;;;;;;9.32;1.83;;;19.00;99.90;;;;;;4970600;28;20329;-57
2022/08/19 04:33:56;;;;;;;6.45;1.60;;;18.90;99.90;;;;;;4978553;28;20134;-57
2022/08/19 04:36:28;;;;;;;6.60;1.58;;;18.90;99.90;;;;;;4984302;28;20030;-57
2022/08/19 04:38:56;;;;;;;5.88;2.88;;;18.90;99.90;;;;;;4977342;28;20035;-58
2022/08/19 04:44:06;;;;;;;10.65;2.53;;;18.90;99.90;;;;;;4972483;28;20058;-57
2022/08/19 04:46:33;;;;;;;11.30;2.13;;;19.00;99.90;;;;;;4971156;28;20031;-57
2022/08/19 04:49:00;;;;;;;8.02;2.05;;;18.90;99.90;;;;;;4973059;28;20035;-57
2022/08/19 04:51:26;;;;;;;10.15;2.60;;;18.90;99.90;;;;;;4971691;28;20054;-57
2022/08/19 04:53:52;;;;;;;6.35;1.92;;;19.00;99.90;;;;;;4973761;28;20074;-57
2022/08/19 04:56:20;;;;;;;8.45;2.45;;;19.00;99.90;;;;;;4973266;28;20023;-58
2022/08/19 04:58:46;;;;;;;17.27;3.05;;;19.00;99.90;;;;;;4970204;28;20035;-57
2022/08/19 05:01:17;;;;;;;7.80;2.35;;;18.90;99.90;;;;;;4972002;28;20019;-57
2022/08/19 05:03:42;;;;;;;8.73;1.80;;;18.90;99.90;;;;;;4971782;28;20046;-57
2022/08/19 05:06:12;;;;;;;12.82;2.15;;;18.90;99.90;;;;;;4970382;28;20027;-57
2022/08/19 05:08:42;;;;;;;7.60;1.90;;;18.90;99.90;;;;;;4971055;28;20048;-57
2022/08/19 05:11:29;;;;;;;8.23;1.75;;;18.90;99.90;;;;;;4973379;28;20031;-58
2022/08/19 05:13:56;;;;;;;11.05;2.17;;;18.90;99.90;;;;;;4966715;28;20039;-57
2022/08/19 05:16:22;;;;;;;6.80;1.90;;;19.00;99.90;;;;;;4971766;28;20517;-57
2022/08/19 05:24:18;;;;;;;11.75;2.30;;;19.10;99.90;;;;;;4972809;28;20073;-58
2022/08/19 05:26:47;;;;;;;5.88;1.92;;;19.00;99.90;;;;;;4969698;28;20611;-58
2022/08/19 05:29:18;;;;;;;5.40;2.30;;;19.10;99.90;;;;;;4972653;28;20042;-58
2022/08/19 05:31:45;;;;;;;8.52;2.40;;;19.10;99.90;;;;;;4970463;28;20031;-57
2022/08/19 05:34:12;;;;;;;6.68;3.00;;;19.20;99.90;;;;;;4972210;28;20066;-57
2022/08/19 05:36:41;;;;;;;7.65;2.40;;;19.20;99.90;;;;;;4970262;28;20483;-57
2022/08/19 05:39:09;;;;;;;10.98;3.22;;;19.20;99.90;;;;;;4972867;28;20034;-57
2022/08/19 05:41:35;;;;;;;10.02;2.80;;;19.20;99.90;;;;;;4971024;28;20031;-57
2022/08/19 05:44:05;;;;;;;7.70;2.28;;;19.30;99.90;;;;;;4972295;28;20038;-58
2022/08/19 05:46:31;;;;;;;8.05;2.83;;;19.20;99.90;;;;;;4969517;28;20061;-57
2022/08/19 05:48:57;;;;;;;12.43;3.05;;;19.20;99.90;;;;;;4964882;28;20030;-57
2022/08/19 05:51:24;;;;;;;14.13;3.47;;;19.30;99.90;;;;;;4972640;28;20026;-57
2022/08/19 05:53:50;;;;;;;11.95;3.63;;;19.30;99.90;;;;;;4972609;28;20037;-57
2022/08/19 05:56:17;;;;;;;9.48;3.08;;;19.40;99.90;;;;;;4972354;28;20031;-57
2022/08/19 05:58:44;;;;;;;7.95;2.75;;;19.40;99.90;;;;;;4969340;28;20093;-57
2022/08/19 06:01:14;;;;;;;7.47;2.90;;;19.40;99.90;;;;;;4971551;28;20112;-57
2022/08/19 06:03:40;;;;;;;7.80;2.88;;;19.50;99.90;;;;;;4961420;28;20022;-57
2022/08/19 06:06:08;;;;;;;8.77;3.17;;;19.50;99.90;;;;;;4972655;28;20026;-57
2022/08/19 06:08:36;;;;;;;6.38;3.10;;;19.50;99.90;;;;;;4970327;28;20027;-57
2022/08/19 06:11:36;;;;;;;4.78;3.00;;;19.50;99.90;;;;;;4971993;28;20070;-56
2022/08/19 06:14:05;;;;;;;8.35;3.53;;;19.50;99.90;;;;;;4967222;28;20395;-56
2022/08/19 06:16:34;;;;;;;4.57;2.38;;;19.60;99.90;;;;;;4969218;28;20023;-56
2022/08/19 06:19:02;;;;;;;6.68;2.58;;;19.60;99.90;;;;;;4971178;28;20065;-57
2022/08/19 06:21:29;;;;;;;8.18;2.72;;;19.60;99.90;;;;;;4970445;28;20030;-57
2022/08/19 06:23:56;;;;;;;6.70;2.80;;;19.70;99.90;;;;;;4971199;28;20493;-57
2022/08/19 06:26:23;;;;;;;8.27;2.80;;;19.80;99.90;;;;;;4969602;28;20337;-56
2022/08/19 06:28:48;;;;;;;6.78;2.50;;;19.80;99.90;;;;;;4963071;28;20064;-57
2022/08/19 06:31:20;;;;;;;9.23;3.20;;;19.90;99.90;;;;;;4969337;28;20368;-57
2022/08/19 06:33:46;;;;;;;9.48;2.97;;;19.90;99.90;;;;;;4969754;28;20050;-57
2022/08/19 06:36:37;;;;;;;10.40;3.08;;;20.00;99.90;;;;;;4971269;28;20035;-57
2022/08/19 06:39:06;;;;;;;13.63;2.85;;;20.00;99.90;;;;;;4987376;28;20026;-57
2022/08/19 06:41:36;;;;;;;7.65;3.35;;;20.00;99.90;;;;;;4969590;28;20027;-58
2022/08/19 06:44:01;;;;;;;9.25;3.55;;;20.10;99.90;;;;;;4971118;28;20114;-58
2022/08/19 06:46:27;;;;;;;7.97;2.30;;;20.10;99.90;;;;;;4969190;28;20106;-57
2022/08/19 06:48:54;;;;;;;5.95;2.92;;;20.10;99.90;;;;;;4984144;28;20033;-57
2022/08/19 06:51:21;;;;;;;6.25;2.40;;;20.10;99.90;;;;;;4973125;28;20035;-57
2022/08/19 06:53:48;;;;;;;7.32;2.60;;;20.20;99.90;;;;;;4977004;28;20043;-58
2022/08/19 06:56:15;;;;;;;5.72;2.10;;;20.20;99.90;;;;;;4972557;28;20031;-58
2022/08/19 06:58:41;;;;;;;5.55;1.85;;;20.30;99.90;;;;;;4970603;28;20026;-58
2022/08/19 07:01:08;;;;;;;7.63;2.33;;;20.30;99.90;;;;;;4972434;28;20031;-57
2022/08/19 07:03:35;;;;;;;6.38;2.15;;;20.40;99.90;;;;;;4967355;28;20447;-57
2022/08/19 07:06:10;;;;;;;8.45;2.15;;;20.50;99.90;;;;;;4972349;28;20158;-57
2022/08/19 07:08:37;;;;;;;6.95;3.28;;;20.60;99.90;;;;;;4966833;28;20026;-57
2022/08/19 07:11:07;;;;;;;8.25;2.33;;;20.70;99.90;;;;;;4972465;28;20106;-58
2022/08/19 07:13:37;;;;;;;10.50;2.10;;;20.80;99.90;;;;;;4964548;28;20045;-58
2022/08/19 07:16:07;;;;;;;5.10;2.30;;;20.80;99.90;;;;;;4972922;28;20073;-58
2022/08/19 07:18:34;;;;;;;10.52;2.50;;;20.90;99.90;;;;;;4968336;28;20026;-58
2022/08/19 07:21:27;;;;;;;3.75;1.60;;;20.90;99.90;;;;;;4969724;28;20066;-57
2022/08/19 07:23:54;;;;;;;6.38;1.92;;;20.90;99.90;;;;;;4975275;28;20124;-57
2022/08/19 07:26:22;;;;;;;3.35;1.60;;;21.00;99.90;;;;;;4970794;28;20589;-57
2022/08/19 07:28:48;;;;;;;5.30;1.83;;;21.00;99.90;;;;;;4966625;28;20486;-57
2022/08/19 07:31:18;;;;;;;4.72;1.40;;;21.00;99.90;;;;;;4977914;28;20026;-57
2022/08/19 07:33:44;;;;;;;2.60;0.80;;;20.80;99.90;;;;;;4983034;28;20058;-57
2022/08/19 07:36:13;;;;;;;4.95;1.20;;;20.70;99.90;;;;;;4983857;28;20029;-59
2022/08/19 07:38:44;;;;;;;6.93;1.38;;;20.70;99.90;;;;;;4966687;28;20054;-58
2022/08/19 07:41:12;;;;;;;7.10;1.17;;;20.70;99.90;;;;;;4966700;28;20039;-58
2022/08/19 07:43:39;;;;;;;6.03;1.98;;;20.70;99.90;;;;;;4968517;28;20031;-58
2022/08/19 07:46:06;;;;;;;4.85;1.33;;;20.80;99.90;;;;;;4967803;28;20038;-58
2022/08/19 07:48:32;;;;;;;6.43;1.10;;;20.90;99.90;;;;;;4968515;28;20035;-57
2022/08/19 07:51:02;;;;;;;4.13;1.23;;;20.90;99.90;;;;;;4969549;28;20037;-57
2022/08/19 07:53:29;;;;;;;5.75;1.20;;;20.90;99.90;;;;;;4968462;28;20414;-56
2022/08/19 07:55:55;;;;;;;5.88;2.15;;;21.00;99.90;;;;;;4968517;28;20534;-58
2022/08/19 07:58:22;;;;;;;7.97;1.48;;;21.10;99.90;;;;;;4960366;28;20113;-57
2022/08/19 08:00:50;;;;;;;6.35;2.42;;;21.40;99.90;;;;;;4974065;28;20055;-58
2022/08/19 08:03:18;;;;;;;6.60;1.30;;;21.70;99.90;;;;;;4963338;28;20505;-58
2022/08/19 08:11:03;;;;;;;4.38;1.08;;;22.20;99.90;;;;;;4970013;28;20034;-58
2022/08/19 08:13:29;;;;;;;2.53;0.85;;;22.20;99.90;;;;;;4967108;28;20170;-58
2022/08/19 08:15:55;;;;;;;3.90;1.20;;;22.20;99.90;;;;;;4967304;28;20117;-57
2022/08/19 08:18:20;;;;;;;5.70;1.08;;;22.30;99.90;;;;;;4969125;28;20038;-58
2022/08/19 08:20:46;;;;;;;2.38;1.05;;;22.40;99.90;;;;;;4967019;28;20033;-57
2022/08/19 08:23:45;;;;;;;2.67;0.90;;;22.50;99.90;;;;;;4967328;28;20383;-58
2022/08/19 08:26:04;;;;;;;3.50;1.02;;;22.50;99.90;;;;;;4967433;28;20129;-58
2022/08/19 08:28:30;;;;;;;2.80;0.90;;;22.60;99.90;;;;;;4966919;28;20161;-57
2022/08/19 08:30:57;;;;;;;5.25;0.47;;;22.60;99.90;;;;;;4968224;28;20113;-57
2022/08/19 08:33:25;;;;;;;1.80;0.57;;;22.60;99.90;;;;;;4969640;28;20043;-57
2022/08/19 08:35:52;;;;;;;2.85;0.80;;;22.70;99.90;;;;;;4967819;28;20077;-57
2022/08/19 08:38:18;;;;;;;1.88;0.50;;;22.70;99.90;;;;;;4958225;28;20034;-58
2022/08/19 08:41:05;;;;;;;0.88;0.40;;;22.80;99.90;;;;;;4967395;28;20033;-57
2022/08/19 08:43:43;;;;;;;3.92;0.70;;;22.60;99.90;;;;;;4964849;28;20061;-58
2022/08/19 08:46:16;;;;;;;4.57;0.57;;;22.70;99.90;;;;;;4969228;28;20110;-57
2022/08/19 08:48:59;;;;;;;0.90;0.60;;;22.60;99.90;;;;;;4960439;28;20102;-57
2022/08/19 08:51:48;;;;;;;4.03;0.80;;;22.80;99.90;;;;;;4973425;28;20023;-58
2022/08/19 08:54:17;;;;;;;2.35;0.60;;;22.90;99.90;;;;;;4971861;28;20106;-57
2022/08/19 08:56:45;;;;;;;2.60;0.85;;;23.00;99.90;;;;;;4969615;28;20022;-56
2022/08/19 08:59:32;;;;;;;4.65;0.80;;;23.00;99.90;;;;;;4969156;28;20029;-58
2022/08/19 09:01:58;;;;;;;3.13;0.77;;;23.10;99.90;;;;;;4976369;28;20502;-58
2022/08/19 09:04:24;;;;;;;3.65;0.75;;;23.10;99.90;;;;;;4970938;28;20552;-57
2022/08/19 09:07:04;;;;;;;4.95;0.80;;;23.10;99.90;;;;;;4970969;28;20482;-57
2022/08/19 09:09:39;;;;;;;1.02;0.60;;;23.10;99.90;;;;;;4970479;28;20509;-57
2022/08/19 09:12:38;;;;;;;3.63;0.88;;;22.70;99.90;;;;;;4971486;28;20478;-57
2022/08/19 09:15:08;;;;;;;4.50;0.93;;;22.50;99.90;;;;;;4971880;28;20039;-57
2022/08/19 09:17:35;;;;;;;2.75;0.70;;;22.00;99.90;;;;;;4967338;28;20027;-58
2022/08/19 09:20:13;;;;;;;3.83;1.15;;;21.90;99.90;;;;;;4973139;28;20035;-58
2022/08/19 09:22:43;;;;;;;2.25;1.38;;;21.90;99.90;;;;;;4970463;28;20390;-58
2022/08/19 09:25:12;;;;;;;1.80;0.93;;;21.80;99.90;;;;;;4971440;28;20034;-57
2022/08/19 09:27:40;;;;;;;4.07;1.00;;;21.50;99.90;;;;;;4970008;28;20042;-57
2022/08/19 09:30:08;;;;;;;5.60;1.40;;;21.30;99.90;;;;;;4972067;28;20062;-57
2022/08/19 09:32:35;;;;;;;8.70;1.50;;;21.10;99.90;;;;;;4970752;28;20121;-58
2022/08/19 09:35:01;;;;;;;5.85;1.30;;;21.00;99.90;;;;;;4971888;28;20047;-57
2022/08/19 09:37:27;;;;;;;7.53;1.80;;;21.20;99.90;;;;;;4970830;28;20141;-56
2022/08/19 09:39:53;;;;;;;8.32;1.70;;;21.50;99.90;;;;;;4972457;28;20039;-58
2022/08/19 09:42:19;;;;;;;5.25;1.70;;;21.60;99.90;;;;;;4971170;28;20061;-58
2022/08/19 09:44:46;;;;;;;6.97;1.55;;;21.80;99.90;;;;;;4969132;28;20049;-58
2022/08/19 09:47:13;;;;;;;2.20;1.10;;;22.00;99.90;;;;;;4967636;28;20035;-58
2022/08/19 09:49:39;;;;;;;7.50;1.58;;;22.20;99.90;;;;;;4969600;28;20058;-57
2022/08/19 09:52:07;;;;;;;3.60;1.02;;;22.50;99.90;;;;;;4972410;28;20027;-57
2022/08/19 09:54:34;;;;;;;6.25;1.48;;;22.80;99.90;;;;;;4969743;28;20049;-57
2022/08/19 09:57:00;;;;;;;6.20;1.10;;;23.10;99.90;;;;;;4970549;28;20133;-57
2022/08/19 09:59:27;;;;;;;9.43;1.33;;;23.40;99.90;;;;;;4968296;28;20069;-58
2022/08/19 10:01:53;;;;;;;6.60;1.02;;;23.60;99.90;;;;;;4978333;28;20033;-58
2022/08/19 10:04:20;;;;;;;8.05;1.38;;;23.60;99.90;;;;;;4971609;28;20502;-58
2022/08/19 10:06:48;;;;;;;3.05;1.02;;;23.40;99.90;;;;;;4969400;28;20035;-57
2022/08/19 10:09:16;;;;;;;2.08;1.20;;;23.30;99.90;;;;;;4971237;28;20027;-57
2022/08/19 10:11:46;;;;;;;9.20;1.30;;;23.10;99.90;;;;;;4969084;28;20513;-57
2022/08/19 10:14:11;;;;;;;5.82;1.08;;;23.00;99.90;;;;;;4972099;28;20070;-57
2022/08/19 10:16:38;;;;;;;8.70;1.00;;;23.00;99.90;;;;;;4968501;28;20062;-58
2022/08/19 10:19:04;;;;;;;3.05;0.65;;;23.00;99.90;;;;;;4969741;28;20034;-58
2022/08/19 10:21:34;;;;;;;5.95;0.70;;;23.10;99.90;;;;;;4970075;28;20023;-57
2022/08/19 10:24:03;;;;;;;4.53;0.70;;;23.20;99.90;;;;;;4970725;28;20031;-58
2022/08/19 10:26:36;;;;;;;3.70;0.68;;;23.60;99.90;;;;;;4968881;28;20558;-58
2022/08/19 10:29:04;;;;;;;4.55;0.95;;;24.00;99.90;;;;;;4969937;28;20038;-57
2022/08/19 10:31:32;;;;;;;3.03;0.93;;;24.30;99.90;;;;;;4969271;28;20482;-58
2022/08/19 10:33:58;;;;;;;3.10;0.47;;;24.30;99.90;;;;;;4970505;28;20077;-58
2022/08/19 10:36:27;;;;;;;6.15;0.70;;;24.10;99.90;;;;;;4971239;28;20734;-58
2022/08/19 10:38:58;;;;;;;3.15;0.57;;;24.00;99.90;;;;;;4970711;28;20506;-58
2022/08/19 10:41:27;;;;;;;5.80;0.73;;;23.80;99.90;;;;;;4969191;28;20019;-58
2022/08/19 10:43:56;;;;;;;2.50;1.17;;;23.50;99.90;;;;;;4970917;28;20022;-58
2022/08/19 10:46:24;;;;;;;2.92;0.60;;;22.80;99.90;;;;;;4970060;28;20019;-58
2022/08/19 10:48:50;;;;;;;4.18;0.70;;;22.50;99.90;;;;;;4968878;28;20034;-58
2022/08/19 10:54:02;;;;;;;5.57;0.98;;;22.30;99.90;;;;;;4969389;28;20520;-57
2022/08/19 10:59:13;;;;;;;4.30;0.50;;;21.90;99.90;;;;;;4969091;28;20061;-57
2022/08/19 11:01:41;;;;;;;1.50;0.40;;;21.90;99.90;;;;;;4975781;28;20442;-57
2022/08/19 11:04:09;;;;;;;0.98;0.40;;;22.10;99.90;;;;;;4969758;28;20471;-58
2022/08/19 11:06:36;;;;;;;1.05;0.60;;;22.40;99.90;;;;;;4968912;28;20031;-57
2022/08/19 11:09:02;;;;;;;3.13;0.20;;;22.70;99.90;;;;;;4968732;28;20494;-57
2022/08/19 11:11:28;;;;;;;1.92;0.38;;;22.80;99.90;;;;;;4968478;28;20030;-58
2022/08/19 11:13:54;;;;;;;0.77;0.17;;;22.90;99.90;;;;;;4970767;28;20042;-57
2022/08/19 11:16:23;;;;;;;1.02;0.43;;;22.90;99.90;;;;;;4969103;28;20375;-57
2022/08/19 11:18:51;;;;;;;0.98;0.10;;;23.10;99.90;;;;;;4963611;28;20030;-56
2022/08/19 11:21:27;;;;;;;1.60;0.30;;;23.40;99.90;;;;;;4967312;28;20493;-57
2022/08/19 11:23:55;;;;;;;0.20;0.20;;;23.70;99.90;;;;;;4963939;28;20058;-57
2022/08/19 11:26:22;;;;;;;1.27;0.30;;;23.70;99.90;;;;;;4968690;28;20542;-58
2022/08/19 11:28:51;;;;;;;0.35;0.20;;;23.60;99.90;;;;;;4964870;28;20034;-58
2022/08/19 11:31:18;;;;;;;4.18;0.30;;;23.20;99.90;;;;;;4972845;28;20363;-58
2022/08/19 11:33:45;;;;;;;0.75;0.30;;;23.10;99.90;;;;;;4968070;28;20105;-58
2022/08/19 11:36:12;;;;;;;1.85;0.35;;;23.10;99.90;;;;;;4969776;28;20478;-58
2022/08/19 11:38:38;;;;;;;1.98;0.30;;;23.00;99.90;;;;;;4977727;28;20224;-57
2022/08/19 11:41:09;;;;;;;3.92;0.40;;;22.90;99.90;;;;;;4976276;28;20049;-57
2022/08/19 11:43:36;;;;;;;0.47;0.20;;;22.70;99.90;;;;;;4960183;28;20027;-57
2022/08/19 11:46:11;;;;;;;2.30;1.15;;;22.60;99.90;;;;;;4969316;28;20035;-57
2022/08/19 11:48:37;;;;;;;2.58;0.30;;;22.70;99.90;;;;;;4959396;28;20038;-57
2022/08/19 11:51:06;;;;;;;1.65;0.30;;;22.90;99.90;;;;;;4967814;28;20058;-57
2022/08/19 11:53:33;;;;;;;0.52;0.25;;;22.60;99.90;;;;;;4966760;28;20116;-57
2022/08/19 11:55:59;;;;;;;2.05;0.82;;;22.20;99.90;;;;;;4969046;28;20038;-58
2022/08/19 11:58:25;;;;;;;2.17;0.68;;;21.90;99.90;;;;;;4969914;28;20035;-57
2022/08/19 12:00:52;;;;;;;0.57;0.40;;;21.80;99.90;;;;;;4966009;28;20447;-57
2022/08/19 12:03:19;;;;;;;2.05;0.43;;;21.60;99.90;;;;;;4974546;28;20284;-58
2022/08/19 12:05:46;;;;;;;0.60;0.50;;;21.30;99.90;;;;;;4981068;28;20026;-58
2022/08/19 12:08:12;;;;;;;1.25;0.50;;;21.10;99.90;;;;;;4983398;28;20088;-58
2022/08/19 12:10:39;;;;;;;1.08;0.55;;;21.00;99.90;;;;;;4972522;28;20035;-59
2022/08/19 12:13:06;;;;;;;0.60;0.35;;;20.90;99.90;;;;;;4970537;28;20479;-59
2022/08/19 12:15:40;;;;;;;1.10;0.60;;;20.90;99.90;;;;;;4970157;28;20031;-58
2022/08/19 12:18:08;;;;;;;1.20;0.38;;;21.00;99.90;;;;;;4968970;28;20023;-57
2022/08/19 12:20:39;;;;;;;1.38;0.70;;;21.20;99.90;;;;;;4972688;28;20057;-56
2022/08/19 12:23:06;;;;;;;3.83;0.60;;;21.20;99.90;;;;;;4973947;28;20372;-57
2022/08/19 12:25:32;;;;;;;0.88;0.50;;;21.30;99.90;;;;;;4980023;28;20037;-57
2022/08/19 12:27:58;;;;;;;2.47;0.70;;;21.20;99.90;;;;;;4978381;28;20027;-58
2022/08/19 12:30:25;;;;;;;2.92;0.57;;;21.30;99.90;;;;;;4977686;28;20038;-58
2022/08/19 12:32:51;;;;;;;5.03;1.02;;;21.20;99.90;;;;;;4963465;28;20482;-57
2022/08/19 12:35:19;;;;;;;2.38;0.80;;;21.30;99.90;;;;;;4976134;28;20049;-58
2022/08/19 12:37:47;;;;;;;4.10;0.82;;;21.40;99.90;;;;;;4972300;28;20165;-58
2022/08/19 12:40:14;;;;;;;1.52;0.63;;;21.60;99.90;;;;;;4970278;28;20397;-58
2022/08/19 12:42:43;;;;;;;2.58;0.70;;;21.90;99.90;;;;;;4968327;28;20019;-58
2022/08/19 12:45:11;;;;;;;4.30;0.80;;;21.80;99.90;;;;;;4975034;28;20165;-58
2022/08/19 12:47:36;;;;;;;3.30;0.90;;;22.20;99.90;;;;;;4971020;28;20511;-58
2022/08/19 12:50:03;;;;;;;6.85;1.00;;;22.50;99.90;;;;;;4974470;28;20022;-57
2022/08/19 12:52:29;;;;;;;5.13;1.10;;;22.50;99.90;;;;;;4971758;28;20087;-57
2022/08/19 12:54:56;;;;;;;4.75;1.85;;;22.50;99.90;;;;;;4976042;28;20046;-58
2022/08/19 12:57:24;;;;;;;6.72;1.10;;;22.80;99.90;;;;;;4977787;28;20054;-58
2022/08/19 12:59:56;;;;;;;4.93;1.05;;;23.20;99.90;;;;;;4968646;28;20046;-58
2022/08/19 13:02:22;;;;;;;7.57;1.60;;;23.60;99.90;;;;;;4976906;28;20093;-58
2022/08/19 13:04:48;;;;;;;5.70;1.30;;;23.70;99.90;;;;;;4974604;28;20039;-58
2022/08/19 13:07:14;;;;;;;6.95;1.10;;;23.70;99.90;;;;;;4970752;28;20034;-58
2022/08/19 13:09:43;;;;;;;4.30;2.05;;;23.70;99.90;;;;;;4969587;28;20030;-58
2022/08/19 13:12:12;;;;;;;5.53;1.77;;;23.70;99.90;;;;;;4970625;28;20109;-57